Terminal Aerodrome Forecast
Issued by NWS

Home | Current Version | Previous Version | Graphics & Text | Print | Product List | Glossary On
Versions: 1 2 3 4 5 6 7 8 9 10 11 12 13 14 15
021
FTUS43 KUNR 142328
TAFGCC
TAF
KGCC 142328Z 1500/1524 36013KT P6SM SCT100 BKN200
     FM150700 01009KT P6SM -SHRA OVC060
     FM151200 33008KT P6SM OVC070=

USA.gov is the U.S. government's official web portal to all federal, state and local government web resources and services.